createdAt,value
2022-10-02T00:06:48.989Z,10.70
2022-10-02T00:07:48.934Z,10.66
2022-10-02T00:08:48.893Z,10.78
2022-10-02T00:09:48.853Z,10.75
2022-10-02T00:10:48.818Z,10.78
2022-10-02T00:11:48.771Z,10.81
2022-10-02T00:12:48.742Z,10.88
2022-10-02T00:13:48.692Z,10.86
2022-10-02T00:14:48.653Z,10.94
2022-10-02T00:15:48.610Z,10.87
2022-10-02T00:16:48.679Z,10.88
2022-10-02T00:17:48.535Z,10.93
2022-10-02T00:18:48.485Z,10.94
2022-10-02T00:19:48.444Z,10.93
2022-10-02T00:20:48.422Z,10.99
2022-10-02T00:21:48.380Z,10.90
2022-10-02T00:22:48.335Z,10.94
2022-10-02T00:23:48.280Z,10.91
2022-10-02T00:24:48.240Z,10.95
2022-10-02T00:25:48.199Z,11.01
2022-10-02T00:26:48.157Z,11.08
2022-10-02T00:27:48.171Z,11.06
2022-10-02T00:28:48.093Z,11.01
2022-10-02T00:29:48.039Z,11.05
2022-10-02T00:30:49.211Z,11.03
2022-10-02T00:31:48.005Z,11.05
2022-10-02T00:32:47.939Z,11.11
2022-10-02T00:33:47.875Z,11.08
2022-10-02T00:34:47.832Z,11.06
2022-10-02T00:35:47.805Z,11.17
2022-10-02T00:36:47.796Z,11.19
2022-10-02T00:37:47.751Z,11.19
2022-10-02T00:38:47.705Z,11.05
2022-10-02T00:39:47.628Z,11.13
2022-10-02T00:40:49.116Z,11.05
2022-10-02T00:41:48.124Z,10.95
2022-10-02T00:42:50.878Z,11.05
2022-10-02T00:43:48.200Z,10.98
2022-10-02T00:44:48.234Z,10.99
2022-10-02T00:45:48.146Z,11.08
2022-10-02T00:46:49.614Z,10.99
2022-10-02T00:47:48.402Z,10.98
2022-10-02T00:48:49.616Z,10.98
2022-10-02T00:49:47.339Z,10.98
2022-10-02T00:50:49.118Z,11.01
2022-10-02T00:51:47.244Z,10.87
2022-10-02T00:52:47.649Z,10.86
2022-10-02T00:53:47.614Z,10.83
2022-10-02T00:54:47.715Z,11.02
2022-10-02T00:55:46.998Z,10.98
2022-10-02T00:56:46.976Z,11.01
2022-10-02T00:57:46.937Z,11.08
2022-10-02T00:58:46.920Z,11.12
2022-10-02T00:59:46.864Z,11.05
2022-10-02T01:00:46.847Z,11.08
2022-10-02T01:01:46.830Z,11.12
2022-10-02T01:02:46.732Z,11.19
2022-10-02T01:03:46.670Z,11.16
2022-10-02T01:04:46.641Z,11.19
2022-10-02T01:05:46.658Z,11.19
2022-10-02T01:06:46.597Z,11.36
2022-10-02T01:07:46.563Z,11.41
2022-10-02T01:08:46.504Z,11.38
2022-10-02T01:09:47.121Z,11.39
2022-10-02T01:10:46.530Z,11.38
2022-10-02T01:11:46.397Z,11.36
2022-10-02T01:12:46.403Z,11.28
2022-10-02T01:13:46.317Z,11.30
2022-10-02T01:14:46.296Z,11.33
2022-10-02T01:15:46.289Z,11.27
2022-10-02T01:16:46.808Z,11.23
2022-10-02T01:17:46.192Z,11.12
2022-10-02T01:18:46.148Z,11.23
2022-10-02T01:19:46.060Z,11.28
2022-10-02T01:20:46.297Z,11.19
2022-10-02T01:21:46.029Z,11.16
2022-10-02T01:22:45.984Z,11.28
2022-10-02T01:23:46.078Z,11.28
2022-10-02T01:24:46.630Z,11.36
2022-10-02T01:25:45.864Z,11.33
2022-10-02T01:26:45.851Z,11.42
2022-10-02T01:27:46.660Z,11.59
2022-10-02T01:28:46.186Z,11.49
2022-10-02T01:29:46.125Z,11.56
2022-10-02T01:30:45.708Z,11.45
2022-10-02T01:31:46.232Z,11.49
2022-10-02T01:32:47.144Z,11.44
2022-10-02T01:33:46.630Z,11.49
2022-10-02T01:34:45.530Z,11.60
2022-10-02T01:35:46.127Z,11.51
2022-10-02T01:36:46.285Z,11.53
2022-10-02T01:37:46.294Z,11.57
2022-10-02T01:38:46.278Z,11.62
2022-10-02T01:39:46.164Z,11.56
2022-10-02T01:40:46.155Z,11.51
2022-10-02T01:41:46.629Z,11.64
2022-10-02T01:42:46.152Z,11.62
2022-10-02T01:43:45.226Z,11.57
2022-10-02T01:44:45.090Z,11.70
2022-10-02T01:45:45.690Z,11.69
2022-10-02T01:46:46.647Z,11.82
2022-10-02T01:47:45.061Z,11.81
2022-10-02T01:48:44.918Z,11.78
2022-10-02T01:49:44.897Z,11.69
2022-10-02T01:50:44.834Z,11.72
2022-10-02T01:51:44.799Z,11.78
2022-10-02T01:52:44.779Z,11.77
2022-10-02T01:53:44.752Z,11.79
2022-10-02T01:54:44.688Z,11.74
2022-10-02T01:55:45.276Z,11.70
2022-10-02T01:56:44.551Z,11.69
2022-10-02T01:57:44.589Z,11.78
2022-10-02T01:58:53.718Z,11.97
2022-10-02T01:59:44.406Z,11.98
2022-10-02T02:00:44.406Z,12.21
2022-10-02T02:01:44.388Z,12.30
2022-10-02T02:02:44.284Z,12.40
2022-10-02T02:03:44.255Z,12.36
2022-10-02T02:04:44.205Z,12.31
2022-10-02T02:05:44.167Z,12.49
2022-10-02T02:06:44.122Z,12.52
2022-10-02T02:07:44.082Z,12.58
2022-10-02T02:08:44.042Z,12.55
2022-10-02T02:09:44.015Z,12.56
2022-10-02T02:10:43.960Z,12.66
2022-10-02T02:11:43.923Z,12.71
2022-10-02T02:12:43.880Z,12.61
2022-10-02T02:13:43.843Z,12.73
2022-10-02T02:14:43.805Z,12.69
2022-10-02T02:15:43.772Z,12.81
2022-10-02T02:16:43.831Z,12.77
2022-10-02T02:17:43.683Z,12.84
2022-10-02T02:18:43.651Z,12.92
2022-10-02T02:19:43.602Z,12.85
2022-10-02T02:20:43.562Z,12.98
2022-10-02T02:21:43.541Z,12.98
2022-10-02T02:22:43.504Z,13.04
2022-10-02T02:23:43.470Z,13.16
2022-10-02T02:24:43.406Z,13.07
2022-10-02T02:25:43.365Z,12.99
2022-10-02T02:26:43.327Z,13.09
2022-10-02T02:27:43.298Z,12.96
2022-10-02T02:28:44.214Z,13.17
2022-10-02T02:29:43.204Z,13.29
2022-10-02T02:30:43.737Z,13.21
2022-10-02T02:31:43.142Z,13.24
2022-10-02T02:32:43.097Z,13.09
2022-10-02T02:33:44.175Z,13.07
2022-10-02T02:34:43.008Z,13.21
2022-10-02T02:35:42.968Z,13.22
2022-10-02T02:36:42.970Z,13.22
2022-10-02T02:37:42.886Z,13.16
2022-10-02T02:38:42.858Z,13.21
2022-10-02T02:39:43.669Z,13.13
2022-10-02T02:40:42.766Z,13.17
2022-10-02T02:41:42.727Z,13.17
2022-10-02T02:42:42.707Z,13.17
2022-10-02T02:43:42.647Z,13.22
2022-10-02T02:44:42.621Z,13.12
2022-10-02T02:45:42.583Z,13.06
2022-10-02T02:46:42.529Z,13.12
2022-10-02T02:47:42.489Z,13.14
2022-10-02T02:48:42.449Z,13.17
2022-10-02T02:49:42.411Z,13.14
2022-10-02T02:50:42.383Z,13.03
2022-10-02T02:51:42.330Z,13.09
2022-10-02T02:52:42.292Z,13.04
2022-10-02T02:53:42.253Z,13.06
2022-10-02T02:54:42.212Z,13.07
2022-10-02T02:55:45.034Z,12.94
2022-10-02T02:56:42.144Z,12.94
2022-10-02T02:57:42.094Z,13.04
2022-10-02T02:58:42.053Z,12.98
2022-10-02T02:59:42.013Z,13.12
2022-10-02T03:00:41.999Z,13.10
2022-10-02T03:01:41.970Z,13.13
2022-10-02T03:02:41.911Z,13.03
2022-10-02T03:03:41.855Z,13.07
2022-10-02T03:04:41.816Z,13.03
2022-10-02T03:05:41.779Z,13.10
2022-10-02T03:06:41.737Z,13.06
2022-10-02T03:07:41.699Z,13.07
2022-10-02T03:08:41.670Z,13.10
2022-10-02T03:09:41.619Z,13.21
2022-10-02T03:10:41.579Z,13.17
2022-10-02T03:11:41.540Z,13.24
2022-10-02T03:12:41.500Z,13.31
2022-10-02T03:13:41.461Z,13.39
2022-10-02T03:14:41.433Z,13.36
2022-10-02T03:15:41.447Z,13.39
2022-10-02T03:16:41.343Z,13.41
2022-10-02T03:17:41.304Z,13.38
2022-10-02T03:18:41.263Z,13.39
2022-10-02T03:19:41.235Z,13.46
2022-10-02T03:20:41.193Z,13.38
2022-10-02T03:21:41.145Z,13.43
2022-10-02T03:22:41.107Z,13.43
2022-10-02T03:23:41.067Z,13.48
2022-10-02T03:24:41.025Z,13.50
2022-10-02T03:25:41.001Z,13.51
2022-10-02T03:26:40.951Z,13.51
2022-10-02T03:27:40.908Z,13.57
2022-10-02T03:28:55.423Z,13.61
2022-10-02T03:29:40.831Z,13.53
2022-10-02T03:30:40.800Z,13.62
2022-10-02T03:31:40.818Z,13.63
2022-10-02T03:32:40.711Z,13.57
2022-10-02T03:33:40.673Z,13.68
2022-10-02T03:34:40.632Z,13.55
2022-10-02T03:35:40.608Z,13.59
2022-10-02T03:36:40.553Z,13.71
2022-10-02T03:37:40.518Z,13.61
2022-10-02T03:38:40.480Z,13.57
2022-10-02T03:39:40.434Z,13.66
2022-10-02T03:40:40.395Z,13.63
2022-10-02T03:41:40.373Z,13.61
2022-10-02T03:42:40.317Z,13.72
2022-10-02T03:43:40.279Z,13.69
2022-10-02T03:44:40.238Z,13.66
2022-10-02T03:45:50.848Z,13.72
2022-10-02T03:46:40.539Z,13.72
2022-10-02T03:47:40.137Z,13.81
2022-10-02T03:48:40.083Z,13.75
2022-10-02T03:49:40.049Z,13.75
2022-10-02T03:50:40.010Z,13.72
2022-10-02T03:51:39.968Z,13.71
2022-10-02T03:52:39.928Z,13.63
2022-10-02T03:53:39.894Z,13.63
2022-10-02T03:54:39.847Z,13.69
2022-10-02T03:55:39.805Z,13.68
2022-10-02T03:56:39.920Z,13.55
2022-10-02T03:57:39.730Z,13.51
2022-10-02T03:58:39.698Z,13.55
2022-10-02T03:59:39.653Z,13.44
2022-10-02T04:00:39.610Z,13.50
2022-10-02T04:01:39.645Z,13.41
2022-10-02T04:02:39.528Z,13.39
2022-10-02T04:03:39.593Z,13.35
2022-10-02T04:04:39.452Z,13.27
2022-10-02T04:05:39.410Z,13.27
2022-10-02T04:06:39.553Z,13.22
2022-10-02T04:07:39.330Z,13.22
2022-10-02T04:08:39.291Z,13.25
2022-10-02T04:09:39.264Z,13.24
2022-10-02T04:10:39.216Z,13.22
2022-10-02T04:11:39.173Z,13.14
2022-10-02T04:12:39.133Z,13.19
2022-10-02T04:13:39.092Z,13.22
2022-10-02T04:14:39.067Z,13.16
2022-10-02T04:15:39.015Z,13.17
2022-10-02T04:16:39.413Z,13.31
2022-10-02T04:17:38.935Z,13.31
2022-10-02T04:18:38.896Z,13.43
2022-10-02T04:19:38.866Z,13.50
2022-10-02T04:20:38.820Z,13.43
2022-10-02T04:21:38.781Z,13.51
2022-10-02T04:22:38.737Z,13.59
2022-10-02T04:23:38.701Z,13.54
2022-10-02T04:24:38.657Z,13.55
2022-10-02T04:25:39.822Z,13.46
2022-10-02T04:26:38.876Z,13.48
2022-10-02T04:27:38.538Z,13.51
2022-10-02T04:28:38.501Z,13.57
2022-10-02T04:29:39.611Z,13.48
2022-10-02T04:30:38.433Z,13.51
2022-10-02T04:31:38.421Z,13.51
2022-10-02T04:32:38.350Z,13.51
2022-10-02T04:33:38.574Z,13.61
2022-10-02T04:34:38.263Z,13.57
2022-10-02T04:35:38.236Z,13.55
2022-10-02T04:36:38.440Z,13.50
2022-10-02T04:37:38.145Z,13.48
2022-10-02T04:38:38.105Z,13.46
2022-10-02T04:39:38.066Z,13.39
2022-10-02T04:40:38.042Z,13.35
2022-10-02T04:41:37.985Z,13.19
2022-10-02T04:42:37.959Z,13.16
2022-10-02T04:43:37.911Z,13.07
2022-10-02T04:44:37.877Z,13.01
2022-10-02T04:45:37.895Z,13.07
2022-10-02T04:46:38.171Z,12.95
2022-10-02T04:47:37.748Z,12.96
2022-10-02T04:48:37.714Z,12.99
2022-10-02T04:49:37.669Z,12.96
2022-10-02T04:50:37.630Z,12.91
2022-10-02T04:51:37.594Z,12.92
2022-10-02T04:52:37.569Z,12.95
2022-10-02T04:53:39.215Z,12.84
2022-10-02T04:54:37.489Z,12.87
2022-10-02T04:55:37.431Z,12.95
2022-10-02T04:56:37.732Z,12.91
2022-10-02T04:57:37.357Z,12.89
2022-10-02T04:58:37.314Z,12.95
2022-10-02T04:59:37.282Z,12.98
2022-10-02T05:00:37.325Z,12.89
2022-10-02T05:01:37.249Z,12.87
2022-10-02T05:02:37.171Z,12.95
2022-10-02T05:03:37.118Z,12.98
2022-10-02T05:04:37.079Z,12.95
2022-10-02T05:05:37.791Z,12.95
2022-10-02T05:06:37.302Z,13.01
2022-10-02T05:07:36.958Z,12.98
2022-10-02T05:08:36.922Z,13.14
2022-10-02T05:09:36.874Z,13.12
2022-10-02T05:10:36.834Z,13.10
2022-10-02T05:11:36.800Z,13.10
2022-10-02T05:12:36.753Z,13.22
2022-10-02T05:13:36.768Z,13.19
2022-10-02T05:14:36.672Z,13.17
2022-10-02T05:15:36.631Z,13.21
2022-10-02T05:16:36.840Z,13.29
2022-10-02T05:17:36.567Z,13.29
2022-10-02T05:18:36.534Z,13.31
2022-10-02T05:19:36.483Z,13.35
2022-10-02T05:20:36.434Z,13.44
2022-10-02T05:21:36.391Z,13.48
2022-10-02T05:22:36.359Z,13.48
2022-10-02T05:23:36.315Z,13.46
2022-10-02T05:24:36.295Z,13.50
2022-10-02T05:25:36.239Z,13.57
2022-10-02T05:26:36.464Z,13.59
2022-10-02T05:27:36.155Z,13.57
2022-10-02T05:28:36.215Z,13.61
2022-10-02T05:29:36.074Z,13.53
2022-10-02T05:30:36.047Z,13.62
2022-10-02T05:31:36.042Z,13.71
2022-10-02T05:32:35.958Z,13.76
2022-10-02T05:33:35.914Z,13.69
2022-10-02T05:34:35.873Z,13.69
2022-10-02T05:35:35.849Z,13.75
2022-10-02T05:36:36.058Z,13.68
2022-10-02T05:37:35.756Z,13.73
2022-10-02T05:38:35.717Z,13.75
2022-10-02T05:39:35.677Z,13.87
2022-10-02T05:40:35.637Z,13.80
2022-10-02T05:41:35.608Z,13.86
2022-10-02T05:42:38.190Z,13.86
2022-10-02T05:43:36.303Z,13.80
2022-10-02T05:44:36.304Z,13.83
2022-10-02T05:45:36.303Z,13.86
2022-10-02T05:46:35.855Z,13.86
2022-10-02T05:47:35.358Z,13.88
2022-10-02T05:48:35.319Z,13.96
2022-10-02T05:49:35.282Z,13.91
2022-10-02T05:50:35.244Z,13.96
2022-10-02T05:51:35.201Z,13.83
2022-10-02T05:52:35.178Z,13.91
2022-10-02T05:53:35.132Z,13.87
2022-10-02T05:54:35.086Z,13.88
2022-10-02T05:55:35.041Z,13.88
2022-10-02T05:56:35.388Z,13.93
2022-10-02T05:57:34.964Z,13.88
2022-10-02T05:58:34.939Z,13.83
2022-10-02T05:59:34.885Z,13.94
2022-10-02T06:00:34.848Z,13.79
2022-10-02T06:01:34.867Z,13.93
2022-10-02T06:02:39.060Z,13.90
2022-10-02T06:03:34.725Z,13.88
2022-10-02T06:04:34.703Z,13.94
2022-10-02T06:05:34.656Z,13.94
2022-10-02T06:06:34.908Z,13.91
2022-10-02T06:07:34.568Z,13.91
2022-10-02T06:08:34.533Z,13.90
2022-10-02T06:09:34.490Z,13.87
2022-10-02T06:10:34.466Z,13.88
2022-10-02T06:11:34.415Z,13.88
2022-10-02T06:12:34.371Z,13.96
2022-10-02T06:13:34.333Z,13.91
2022-10-02T06:14:34.295Z,13.91
2022-10-02T06:15:34.255Z,14.02
2022-10-02T06:16:34.766Z,13.87
2022-10-02T06:17:34.175Z,13.98
2022-10-02T06:18:34.138Z,13.91
2022-10-02T06:19:34.814Z,13.96
2022-10-02T06:20:34.069Z,13.99
2022-10-02T06:21:34.020Z,13.99
2022-10-02T06:22:33.981Z,14.09
2022-10-02T06:23:33.941Z,14.05
2022-10-02T06:24:33.901Z,14.12
2022-10-02T06:25:33.870Z,14.09
2022-10-02T06:26:35.080Z,14.09
2022-10-02T06:27:33.790Z,14.23
2022-10-02T06:28:34.320Z,14.24
2022-10-02T06:29:33.704Z,14.16
2022-10-02T06:30:34.318Z,14.31
2022-10-02T06:31:33.728Z,14.38
2022-10-02T06:32:33.736Z,14.36
2022-10-02T06:33:33.549Z,14.42
2022-10-02T06:34:33.511Z,14.45
2022-10-02T06:35:33.470Z,14.44
2022-10-02T06:36:33.701Z,14.45
2022-10-02T06:37:33.406Z,14.36
2022-10-02T06:38:33.354Z,14.34
2022-10-02T06:39:33.315Z,14.36
2022-10-02T06:40:33.277Z,14.39
2022-10-02T06:41:33.239Z,14.39
2022-10-02T06:42:33.201Z,14.29
2022-10-02T06:43:33.170Z,14.44
2022-10-02T06:44:33.123Z,14.35
2022-10-02T06:45:33.136Z,14.45
2022-10-02T06:46:33.051Z,14.44
2022-10-02T06:47:33.001Z,14.39
2022-10-02T06:48:32.977Z,14.34
2022-10-02T06:49:32.923Z,14.38
2022-10-02T06:50:32.885Z,14.36
2022-10-02T06:51:32.845Z,14.36
2022-10-02T06:52:37.765Z,14.39
2022-10-02T06:53:32.769Z,14.38
2022-10-02T06:54:32.745Z,14.17
2022-10-02T06:55:32.689Z,14.38
2022-10-02T06:56:32.650Z,14.29
2022-10-02T06:57:32.615Z,14.42
2022-10-02T06:58:32.574Z,14.30
2022-10-02T06:59:32.543Z,14.23
2022-10-02T07:00:32.551Z,14.30
2022-10-02T07:01:32.454Z,14.35
2022-10-02T07:02:32.468Z,14.34
2022-10-02T07:03:32.376Z,14.23
2022-10-02T07:04:32.352Z,14.36
2022-10-02T07:05:32.301Z,14.36
2022-10-02T07:06:32.262Z,14.36
2022-10-02T07:07:32.224Z,14.36
2022-10-02T07:08:32.181Z,14.39
2022-10-02T07:09:32.142Z,14.41
2022-10-02T07:10:32.116Z,14.39
2022-10-02T07:11:32.063Z,14.27
2022-10-02T07:12:32.025Z,14.38
2022-10-02T07:13:31.988Z,14.39
2022-10-02T07:14:31.958Z,14.34
2022-10-02T07:15:31.920Z,14.36
2022-10-02T07:16:31.937Z,14.41
2022-10-02T07:17:31.865Z,14.31
2022-10-02T07:18:31.794Z,14.46
2022-10-02T07:19:31.752Z,14.57
2022-10-02T07:20:31.716Z,14.56
2022-10-02T07:21:31.686Z,14.54
2022-10-02T07:22:46.155Z,14.61
2022-10-02T07:23:31.597Z,14.72
2022-10-02T07:24:31.561Z,14.66
2022-10-02T07:25:31.518Z,14.71
2022-10-02T07:26:31.494Z,14.66
2022-10-02T07:27:31.454Z,14.74
2022-10-02T07:28:31.476Z,14.72
2022-10-02T07:29:31.364Z,14.85
2022-10-02T07:30:31.336Z,14.91
2022-10-02T07:31:31.322Z,14.86
2022-10-02T07:32:31.253Z,14.86
2022-10-02T07:33:31.218Z,14.91
2022-10-02T07:34:31.169Z,14.82
2022-10-02T07:35:31.128Z,14.82
2022-10-02T07:36:31.090Z,14.80
2022-10-02T07:37:31.051Z,14.79
2022-10-02T07:38:31.015Z,14.78
2022-10-02T07:39:30.981Z,14.74
2022-10-02T07:40:30.948Z,14.64
2022-10-02T07:41:30.903Z,14.71
2022-10-02T07:42:30.867Z,14.67
2022-10-02T07:43:30.820Z,14.66
2022-10-02T07:44:30.781Z,14.79
2022-10-02T07:45:30.801Z,14.64
2022-10-02T07:46:30.704Z,14.61
2022-10-02T07:47:30.663Z,14.54
2022-10-02T07:48:30.748Z,14.44
2022-10-02T07:49:30.585Z,14.57
2022-10-02T07:50:30.548Z,14.60
2022-10-02T07:51:30.526Z,14.71
2022-10-02T07:52:30.472Z,14.60
2022-10-02T07:53:30.432Z,14.54
2022-10-02T07:54:30.396Z,14.46
2022-10-02T07:55:30.353Z,14.53
2022-10-02T07:56:30.315Z,14.57
2022-10-02T07:57:30.291Z,14.48
2022-10-02T07:58:30.240Z,14.48
2022-10-02T07:59:39.353Z,14.49
2022-10-02T08:00:30.160Z,14.48
2022-10-02T08:01:30.121Z,14.54
2022-10-02T08:02:30.214Z,14.60
2022-10-02T08:03:30.098Z,14.63
2022-10-02T08:04:34.683Z,14.59
2022-10-02T08:05:29.965Z,14.69
2022-10-02T08:06:29.942Z,14.74
2022-10-02T08:07:29.889Z,14.59
2022-10-02T08:08:29.854Z,14.75
2022-10-02T08:09:29.846Z,14.75
2022-10-02T08:10:29.770Z,14.91
2022-10-02T08:11:29.731Z,14.80
2022-10-02T08:12:29.692Z,15.00
2022-10-02T08:13:29.667Z,14.85
2022-10-02T08:14:29.615Z,14.85
2022-10-02T08:15:29.578Z,14.82
2022-10-02T08:16:29.568Z,14.87
2022-10-02T08:17:29.504Z,14.86
2022-10-02T08:18:34.571Z,14.87
2022-10-02T08:19:29.445Z,14.91
2022-10-02T08:20:29.674Z,14.91
2022-10-02T08:21:29.347Z,14.91
2022-10-02T08:22:29.333Z,14.98
2022-10-02T08:23:29.270Z,14.95
2022-10-02T08:24:29.230Z,14.91
2022-10-02T08:25:29.206Z,14.94
2022-10-02T08:26:34.529Z,15.00
2022-10-02T08:27:29.119Z,14.97
2022-10-02T08:28:29.117Z,14.98
2022-10-02T08:29:29.040Z,14.95
2022-10-02T08:30:28.998Z,14.98
2022-10-02T08:31:29.012Z,14.98
2022-10-02T08:32:32.507Z,15.11
2022-10-02T08:33:28.885Z,15.03
2022-10-02T08:34:28.847Z,15.09
2022-10-02T08:35:28.811Z,15.01
2022-10-02T08:36:28.782Z,15.07
2022-10-02T08:37:28.738Z,15.01
2022-10-02T08:38:28.695Z,14.95
2022-10-02T08:39:28.657Z,15.04
2022-10-02T08:40:28.616Z,15.11
2022-10-02T08:41:28.591Z,15.07
2022-10-02T08:42:28.543Z,15.25
2022-10-02T08:43:28.502Z,15.27
2022-10-02T08:44:30.176Z,15.30
2022-10-02T08:45:28.465Z,15.35
2022-10-02T08:46:28.386Z,15.31
2022-10-02T08:47:28.366Z,15.34
2022-10-02T08:48:28.309Z,15.31
2022-10-02T08:49:28.274Z,15.46
2022-10-02T08:50:28.234Z,15.43
2022-10-02T08:51:28.196Z,15.33
2022-10-02T08:52:28.158Z,15.40
2022-10-02T08:53:28.133Z,15.35
2022-10-02T08:54:28.096Z,15.37
2022-10-02T08:55:28.044Z,15.31
2022-10-02T08:56:28.006Z,15.33
2022-10-02T08:57:27.969Z,15.15
2022-10-02T08:58:27.930Z,15.12
2022-10-02T08:59:27.916Z,15.13
2022-10-02T09:00:27.854Z,15.18
2022-10-02T09:01:27.816Z,15.09
2022-10-02T09:02:27.854Z,15.11
2022-10-02T09:03:27.741Z,15.03
2022-10-02T09:04:27.719Z,14.97
2022-10-02T09:05:27.667Z,14.91
2022-10-02T09:06:27.627Z,15.04
2022-10-02T09:07:28.342Z,15.09
2022-10-02T09:08:27.550Z,15.04
2022-10-02T09:09:27.515Z,15.07
2022-10-02T09:10:27.494Z,15.09
2022-10-02T09:11:27.437Z,15.16
2022-10-02T09:12:27.399Z,15.12
2022-10-02T09:13:27.363Z,15.13
2022-10-02T09:14:27.324Z,15.03
2022-10-02T09:15:27.286Z,15.19
2022-10-02T09:16:27.309Z,15.23
2022-10-02T09:17:27.217Z,15.22
2022-10-02T09:18:27.169Z,15.37
2022-10-02T09:19:27.132Z,15.34
2022-10-02T09:20:27.091Z,15.38
2022-10-02T09:21:27.065Z,15.38
2022-10-02T09:22:27.019Z,15.46
2022-10-02T09:23:26.979Z,15.49
2022-10-02T09:24:26.999Z,15.58
2022-10-02T09:25:26.991Z,15.66
2022-10-02T09:26:26.869Z,15.59
2022-10-02T09:27:26.837Z,15.60
2022-10-02T09:28:26.825Z,15.62
2022-10-02T09:29:26.753Z,15.78
2022-10-02T09:30:26.718Z,15.76
2022-10-02T09:31:26.718Z,15.77
2022-10-02T09:32:26.653Z,15.96
2022-10-02T09:33:26.601Z,16.03
2022-10-02T09:34:26.564Z,16.06
2022-10-02T09:35:26.533Z,15.99
2022-10-02T09:36:26.492Z,16.16
2022-10-02T09:37:26.452Z,16.22
2022-10-02T09:38:26.412Z,16.17
2022-10-02T09:39:26.388Z,16.41
2022-10-02T09:40:26.339Z,16.52
2022-10-02T09:41:26.317Z,16.47
2022-10-02T09:42:26.262Z,16.41
2022-10-02T09:43:26.232Z,16.57
2022-10-02T09:44:26.185Z,16.57
2022-10-02T09:45:26.213Z,16.66
2022-10-02T09:46:26.116Z,16.66
2022-10-02T09:47:26.088Z,16.72
2022-10-02T09:48:26.040Z,16.78
2022-10-02T09:49:26.004Z,16.88
2022-10-02T09:50:25.979Z,16.75
2022-10-02T09:51:25.926Z,16.96
2022-10-02T09:52:25.893Z,16.99
2022-10-02T09:53:25.866Z,17.07
2022-10-02T09:54:25.823Z,17.35
2022-10-02T09:55:25.783Z,17.46
2022-10-02T09:56:25.746Z,17.51
2022-10-02T09:57:25.714Z,17.57
2022-10-02T09:58:25.687Z,17.70
2022-10-02T09:59:25.639Z,17.65
2022-10-02T10:00:25.614Z,17.49
2022-10-02T10:01:25.620Z,17.38
2022-10-02T10:02:26.043Z,17.14
2022-10-02T10:03:25.493Z,17.07
2022-10-02T10:04:33.705Z,17.05
2022-10-02T10:05:25.427Z,17.00
2022-10-02T10:06:25.386Z,16.82
2022-10-02T10:07:25.354Z,16.70
2022-10-02T10:08:25.317Z,16.73
2022-10-02T10:09:25.280Z,16.77
2022-10-02T10:10:25.256Z,16.90
2022-10-02T10:11:25.206Z,16.88
2022-10-02T10:12:25.169Z,16.91
2022-10-02T10:13:25.135Z,16.98
2022-10-02T10:14:25.096Z,17.00
2022-10-02T10:15:25.076Z,17.03
2022-10-02T10:16:25.069Z,16.80
2022-10-02T10:17:24.988Z,16.73
2022-10-02T10:18:24.951Z,16.57
2022-10-02T10:19:24.914Z,16.54
2022-10-02T10:20:24.879Z,16.52
2022-10-02T10:21:29.986Z,16.40
2022-10-02T10:22:24.815Z,16.50
2022-10-02T10:23:24.769Z,16.30
2022-10-02T10:24:24.730Z,16.33
2022-10-02T10:25:24.699Z,16.32
2022-10-02T10:26:24.657Z,16.33
2022-10-02T10:27:24.637Z,16.44
2022-10-02T10:28:24.617Z,16.48
2022-10-02T10:29:24.548Z,16.47
2022-10-02T10:30:24.513Z,16.44
2022-10-02T10:31:24.518Z,16.59
2022-10-02T10:32:24.439Z,16.51
2022-10-02T10:33:24.421Z,16.65
2022-10-02T10:34:24.364Z,16.78
2022-10-02T10:35:24.341Z,16.98
2022-10-02T10:36:24.322Z,16.96
2022-10-02T10:37:24.256Z,17.14
2022-10-02T10:38:24.212Z,17.02
2022-10-02T10:39:24.193Z,17.18
2022-10-02T10:40:24.157Z,17.57
2022-10-02T10:41:24.106Z,17.81
2022-10-02T10:42:24.927Z,17.87
2022-10-02T10:43:24.034Z,18.05
2022-10-02T10:44:23.997Z,17.98
2022-10-02T10:45:24.019Z,18.01
2022-10-02T10:46:23.930Z,17.94
2022-10-02T10:47:23.888Z,17.95
2022-10-02T10:48:23.851Z,17.92
2022-10-02T10:49:23.825Z,17.91
2022-10-02T10:50:23.792Z,17.70
2022-10-02T10:51:23.746Z,17.73
2022-10-02T10:52:23.708Z,17.79
2022-10-02T10:53:23.674Z,17.79
2022-10-02T10:54:23.637Z,17.89
2022-10-02T10:55:23.600Z,18.02
2022-10-02T10:56:23.578Z,18.25
2022-10-02T10:57:23.546Z,18.62
2022-10-02T10:58:23.501Z,18.89
2022-10-02T10:59:25.439Z,19.39
2022-10-02T11:00:23.424Z,19.62
2022-10-02T11:01:23.514Z,19.61
2022-10-02T11:02:23.422Z,19.58
2022-10-02T11:03:23.333Z,19.76
2022-10-02T11:04:23.285Z,20.08
2022-10-02T11:05:23.263Z,20.22
2022-10-02T11:06:23.216Z,20.16
2022-10-02T11:07:23.182Z,20.00
2022-10-02T11:08:23.155Z,19.85
2022-10-02T11:09:23.110Z,19.72
2022-10-02T11:10:23.078Z,19.57
2022-10-02T11:11:23.044Z,19.35
2022-10-02T11:12:23.009Z,19.01
2022-10-02T11:13:22.986Z,18.93
2022-10-02T11:14:22.939Z,18.86
2022-10-02T11:15:22.908Z,18.69
2022-10-02T11:16:22.941Z,18.50
2022-10-02T11:17:22.844Z,18.46
2022-10-02T11:18:22.807Z,18.36
2022-10-02T11:19:22.783Z,18.50
2022-10-02T11:20:22.733Z,18.56
2022-10-02T11:21:22.707Z,18.50
2022-10-02T11:22:22.668Z,18.59
2022-10-02T11:23:22.635Z,18.59
2022-10-02T11:24:22.603Z,18.90
2022-10-02T11:25:22.579Z,18.96
2022-10-02T11:26:22.528Z,19.06
2022-10-02T11:27:22.493Z,18.97
2022-10-02T11:28:22.574Z,19.10
2022-10-02T11:29:22.429Z,18.94
2022-10-02T11:30:22.401Z,18.74
2022-10-02T11:31:22.381Z,18.90
2022-10-02T11:32:22.318Z,18.93
2022-10-02T11:33:22.287Z,18.97
2022-10-02T11:34:22.250Z,19.05
2022-10-02T11:35:22.219Z,18.96
2022-10-02T11:36:22.193Z,18.78
2022-10-02T11:37:22.147Z,18.72
2022-10-02T11:38:22.118Z,18.74
2022-10-02T11:39:22.078Z,18.69
2022-10-02T11:40:22.054Z,18.64
2022-10-02T11:41:22.007Z,18.65
2022-10-02T11:42:21.982Z,18.68
2022-10-02T11:43:21.941Z,18.71
2022-10-02T11:44:21.900Z,18.76
2022-10-02T11:45:21.872Z,18.93
2022-10-02T11:46:21.834Z,19.15
2022-10-02T11:47:21.807Z,19.27
2022-10-02T11:48:21.761Z,19.45
2022-10-02T11:49:21.727Z,19.49
2022-10-02T11:50:21.694Z,19.65
2022-10-02T11:51:21.665Z,19.64
2022-10-02T11:52:21.624Z,19.47
2022-10-02T11:53:21.603Z,19.62
2022-10-02T11:54:21.556Z,19.52
2022-10-02T11:55:21.520Z,19.49
2022-10-02T11:56:21.483Z,19.71
2022-10-02T11:57:21.460Z,19.75
2022-10-02T11:58:21.421Z,19.83
2022-10-02T11:59:21.391Z,19.90
2022-10-02T12:00:21.346Z,19.79
2022-10-02T12:01:21.312Z,19.82
2022-10-02T12:02:21.381Z,19.80
2022-10-02T12:03:21.351Z,19.87
2022-10-02T12:04:21.213Z,20.20
2022-10-02T12:05:21.193Z,20.12
2022-10-02T12:06:21.145Z,20.10
2022-10-02T12:07:21.112Z,20.10
2022-10-02T12:08:21.077Z,19.86
2022-10-02T12:09:21.045Z,20.04
2022-10-02T12:10:21.009Z,19.94
2022-10-02T12:11:20.989Z,20.19
2022-10-02T12:12:23.481Z,20.20
2022-10-02T12:13:20.915Z,20.20
2022-10-02T12:14:20.877Z,20.12
2022-10-02T12:15:20.847Z,19.95
2022-10-02T12:16:20.917Z,20.10
2022-10-02T12:17:20.778Z,20.00
2022-10-02T12:18:21.969Z,19.97
2022-10-02T12:19:20.710Z,19.82
2022-10-02T12:20:20.677Z,19.75
2022-10-02T12:21:20.644Z,19.85
2022-10-02T12:22:20.624Z,20.07
2022-10-02T12:23:20.586Z,20.23
2022-10-02T12:24:20.547Z,20.17
2022-10-02T12:25:20.509Z,19.90
2022-10-02T12:26:20.480Z,19.71
2022-10-02T12:27:20.448Z,19.79
2022-10-02T12:28:20.446Z,19.75
2022-10-02T12:29:20.379Z,19.57
2022-10-02T12:30:20.348Z,19.72
2022-10-02T12:31:20.368Z,19.68
2022-10-02T12:32:20.282Z,19.67
2022-10-02T12:33:20.259Z,19.42
2022-10-02T12:34:20.212Z,19.55
2022-10-02T12:35:20.179Z,19.46
2022-10-02T12:36:20.147Z,19.50
2022-10-02T12:37:20.111Z,19.67
2022-10-02T12:38:20.090Z,19.64
2022-10-02T12:39:22.180Z,19.70
2022-10-02T12:40:20.020Z,19.76
2022-10-02T12:41:19.982Z,19.97
2022-10-02T12:42:19.950Z,20.12
2022-10-02T12:43:19.932Z,20.23
2022-10-02T12:44:19.879Z,20.40
2022-10-02T12:45:19.847Z,20.46
2022-10-02T12:46:19.815Z,20.50
2022-10-02T12:47:19.783Z,20.42
2022-10-02T12:48:19.749Z,20.20
2022-10-02T12:49:19.729Z,20.12
2022-10-02T12:50:19.683Z,20.12
2022-10-02T12:51:19.646Z,20.22
2022-10-02T12:52:19.615Z,20.31
2022-10-02T12:53:19.587Z,20.38
2022-10-02T12:54:19.559Z,20.31
2022-10-02T12:55:19.518Z,20.12
2022-10-02T12:56:19.484Z,20.00
2022-10-02T12:57:19.442Z,19.92
2022-10-02T12:58:19.412Z,19.95